sensor_id;sensor_type;location;lat;lon;timestamp;pressure;altitude;pressure_sealevel;temperature;humidity
76496;BME280;65329;52.544;4.662;2022-12-18T00:01:04;66991.44;;;3.53;0.00
76496;BME280;65329;52.544;4.662;2022-12-18T00:03:35;66987.03;;;3.52;0.00
76496;BME280;65329;52.544;4.662;2022-12-18T00:06:02;66945.25;;;3.50;0.00
76496;BME280;65329;52.544;4.662;2022-12-18T00:08:28;66981.13;;;3.51;0.00
76496;BME280;65329;52.544;4.662;2022-12-18T00:10:55;66981.53;;;3.49;0.00
76496;BME280;65329;52.544;4.662;2022-12-18T00:13:32;66980.75;;;3.46;0.00
76496;BME280;65329;52.544;4.662;2022-12-18T00:16:04;66967.78;;;3.44;0.00
76496;BME280;65329;52.544;4.662;2022-12-18T00:18:32;66976.94;;;3.45;0.00
76496;BME280;65329;52.544;4.662;2022-12-18T00:21:00;66990.69;;;3.43;0.00
76496;BME280;65329;52.544;4.662;2022-12-18T00:23:29;66931.34;;;3.43;0.00
76496;BME280;65329;52.544;4.662;2022-12-18T00:26:03;66985.72;;;3.41;0.00
76496;BME280;65329;52.544;4.662;2022-12-18T00:28:30;66942.97;;;3.41;0.00
76496;BME280;65329;52.544;4.662;2022-12-18T00:31:02;66946.06;;;3.39;0.00
76496;BME280;65329;52.544;4.662;2022-12-18T00:33:30;66976.94;;;3.38;0.00
76496;BME280;65329;52.544;4.662;2022-12-18T00:38:31;66974.28;;;3.38;0.00
76496;BME280;65329;52.544;4.662;2022-12-18T00:40:58;66968.19;;;3.35;0.00
76496;BME280;65329;52.544;4.662;2022-12-18T00:43:26;66958.84;;;3.32;0.00
76496;BME280;65329;52.544;4.662;2022-12-18T00:45:53;66957.91;;;3.33;0.00
76496;BME280;65329;52.544;4.662;2022-12-18T00:48:19;66932.31;;;3.34;0.00
76496;BME280;65329;52.544;4.662;2022-12-18T00:50:48;66972.75;;;3.32;0.00
76496;BME280;65329;52.544;4.662;2022-12-18T00:53:15;66971.25;;;3.33;0.00
76496;BME280;65329;52.544;4.662;2022-12-18T00:55:43;66977.34;;;3.29;0.00
76496;BME280;65329;52.544;4.662;2022-12-18T00:58:11;66946.06;;;3.32;0.00
76496;BME280;65329;52.544;4.662;2022-12-18T01:00:38;66961.53;;;3.32;0.00
76496;BME280;65329;52.544;4.662;2022-12-18T01:03:05;66965.91;;;3.33;0.00
76496;BME280;65329;52.544;4.662;2022-12-18T01:05:32;66956.56;;;3.30;0.00
76496;BME280;65329;52.544;4.662;2022-12-18T01:07:59;66904.84;;;3.31;0.00
76496;BME280;65329;52.544;4.662;2022-12-18T01:10:26;66940.72;;;3.32;0.00
76496;BME280;65329;52.544;4.662;2022-12-18T01:12:56;66934.22;;;3.31;0.00
76496;BME280;65329;52.544;4.662;2022-12-18T01:15:23;67022.19;;;3.29;0.00
76496;BME280;65329;52.544;4.662;2022-12-18T01:17:52;66933.66;;;3.31;0.00
76496;BME280;65329;52.544;4.662;2022-12-18T01:20:20;66925.66;;;3.31;0.00
76496;BME280;65329;52.544;4.662;2022-12-18T01:22:46;66952.94;;;3.31;0.00
76496;BME280;65329;52.544;4.662;2022-12-18T01:25:13;66959.81;;;3.30;0.00
76496;BME280;65329;52.544;4.662;2022-12-18T01:27:40;66931.38;;;3.29;0.00
76496;BME280;65329;52.544;4.662;2022-12-18T01:30:07;66926.59;;;3.29;0.00
76496;BME280;65329;52.544;4.662;2022-12-18T01:32:33;66957.50;;;3.28;0.00
76496;BME280;65329;52.544;4.662;2022-12-18T01:35:01;66928.72;;;3.29;0.00
76496;BME280;65329;52.544;4.662;2022-12-18T01:37:27;66945.69;;;3.27;0.00
76496;BME280;65329;52.544;4.662;2022-12-18T01:39:54;66935.00;;;3.27;0.00
76496;BME280;65329;52.544;4.662;2022-12-18T01:42:21;66987.25;;;3.26;0.00
76496;BME280;65329;52.544;4.662;2022-12-18T01:45:05;66987.25;;;3.26;0.00
76496;BME280;65329;52.544;4.662;2022-12-18T01:50:07;66929.47;;;3.25;0.00
76496;BME280;65329;52.544;4.662;2022-12-18T01:52:36;66905.44;;;3.25;0.00
76496;BME280;65329;52.544;4.662;2022-12-18T01:55:08;66926.25;;;3.24;0.00
76496;BME280;65329;52.544;4.662;2022-12-18T01:57:37;66915.94;;;3.22;0.00
76496;BME280;65329;52.544;4.662;2022-12-18T02:00:16;66950.28;;;3.24;0.00
76496;BME280;65329;52.544;4.662;2022-12-18T02:02:45;66947.97;;;3.22;0.00
76496;BME280;65329;52.544;4.662;2022-12-18T02:05:16;66967.81;;;3.23;0.00
76496;BME280;65329;52.544;4.662;2022-12-18T02:08:10;66970.47;;;3.23;0.00
76496;BME280;65329;52.544;4.662;2022-12-18T02:11:07;66966.09;;;3.22;0.00
76496;BME280;65329;52.544;4.662;2022-12-18T02:18:51;66921.66;;;3.20;0.00
76496;BME280;65329;52.544;4.662;2022-12-18T02:26:48;66944.94;;;3.17;0.00
76496;BME280;65329;52.544;4.662;2022-12-18T02:29:29;66958.69;;;3.15;0.00
76496;BME280;65329;52.544;4.662;2022-12-18T02:32:03;66923.56;;;3.17;0.00
76496;BME280;65329;52.544;4.662;2022-12-18T02:34:33;66947.41;;;3.15;0.00
76496;BME280;65329;52.544;4.662;2022-12-18T02:37:09;66915.97;;;3.15;0.00
76496;BME280;65329;52.544;4.662;2022-12-18T02:39:40;66905.28;;;3.15;0.00
76496;BME280;65329;52.544;4.662;2022-12-18T02:42:10;66901.84;;;3.12;0.00
76496;BME280;65329;52.544;4.662;2022-12-18T02:44:47;66949.72;;;3.10;0.00
76496;BME280;65329;52.544;4.662;2022-12-18T02:47:21;66911.78;;;3.09;0.00
76496;BME280;65329;52.544;4.662;2022-12-18T02:52:31;66894.78;;;3.11;0.00
76496;BME280;65329;52.544;4.662;2022-12-18T02:58:05;66931.03;;;3.10;0.00
76496;BME280;65329;52.544;4.662;2022-12-18T03:00:40;66911.78;;;3.09;0.00
76496;BME280;65329;52.544;4.662;2022-12-18T03:03:14;66931.41;;;3.08;0.00
76496;BME280;65329;52.544;4.662;2022-12-18T03:08:38;66911.97;;;3.05;0.00
76496;BME280;65329;52.544;4.662;2022-12-18T03:11:11;66938.66;;;3.05;0.00
76496;BME280;65329;52.544;4.662;2022-12-18T03:16:16;66909.31;;;3.05;0.00
76496;BME280;65329;52.544;4.662;2022-12-18T03:19:06;66914.81;;;3.07;0.00
76496;BME280;65329;52.544;4.662;2022-12-18T03:22:00;66940.75;;;3.04;0.00
76496;BME280;65329;52.544;4.662;2022-12-18T03:24:36;66919.41;;;3.04;0.00
76496;BME280;65329;52.544;4.662;2022-12-18T03:27:11;66934.47;;;2.99;0.00
76496;BME280;65329;52.544;4.662;2022-12-18T03:29:48;66902.63;;;3.01;0.00
76496;BME280;65329;52.544;4.662;2022-12-18T03:32:24;66916.38;;;2.99;0.00
76496;BME280;65329;52.544;4.662;2022-12-18T03:34:55;66911.41;;;2.97;0.00
76496;BME280;65329;52.544;4.662;2022-12-18T03:37:32;66879.97;;;2.98;0.00
76496;BME280;65329;52.544;4.662;2022-12-18T03:39:59;66878.25;;;2.96;0.00
76496;BME280;65329;52.544;4.662;2022-12-18T03:42:43;66899.19;;;2.98;0.00
76496;BME280;65329;52.544;4.662;2022-12-18T03:48:27;66901.88;;;2.98;0.00
76496;BME280;65329;52.544;4.662;2022-12-18T03:51:02;66889.47;;;2.97;0.00
76496;BME280;65329;52.544;4.662;2022-12-18T03:53:55;66919.41;;;2.97;0.00
76496;BME280;65329;52.544;4.662;2022-12-18T03:56:31;66906.44;;;2.95;0.00
76496;BME280;65329;52.544;4.662;2022-12-18T03:59:01;66909.31;;;2.91;0.00
76496;BME280;65329;52.544;4.662;2022-12-18T04:01:36;66871.41;;;2.90;0.00
76496;BME280;65329;52.544;4.662;2022-12-18T04:04:06;66919.03;;;2.85;0.00
76496;BME280;65329;52.544;4.662;2022-12-18T04:06:37;66918.47;;;2.92;0.00
76496;BME280;65329;52.544;4.662;2022-12-18T04:09:07;66967.66;;;2.93;0.00
76496;BME280;65329;52.544;4.662;2022-12-18T04:11:40;66874.63;;;2.91;0.00
76496;BME280;65329;52.544;4.662;2022-12-18T04:14:07;66890.44;;;2.88;0.00
76496;BME280;65329;52.544;4.662;2022-12-18T04:16:37;66901.13;;;2.88;0.00
76496;BME280;65329;52.544;4.662;2022-12-18T04:19:07;66952.78;;;2.87;0.00
76496;BME280;65329;52.544;4.662;2022-12-18T04:21:38;66882.81;;;2.86;0.00
76496;BME280;65329;52.544;4.662;2022-12-18T04:24:06;66895.03;;;2.85;0.00
76496;BME280;65329;52.544;4.662;2022-12-18T04:26:35;66872.94;;;2.82;0.00
76496;BME280;65329;52.544;4.662;2022-12-18T04:29:15;66879.41;;;2.83;0.00
76496;BME280;65329;52.544;4.662;2022-12-18T04:31:41;66952.41;;;2.82;0.00
76496;BME280;65329;52.544;4.662;2022-12-18T04:34:08;66898.47;;;2.81;0.00
76496;BME280;65329;52.544;4.662;2022-12-18T04:36:41;66891.63;;;2.75;0.00
76496;BME280;65329;52.544;4.662;2022-12-18T04:39:08;66856.53;;;2.77;0.00
76496;BME280;65329;52.544;4.662;2022-12-18T04:41:35;66906.09;;;2.76;0.00
76496;BME280;65329;52.544;4.662;2022-12-18T04:44:03;66892.19;;;2.76;0.00
76496;BME280;65329;52.544;4.662;2022-12-18T04:46:29;66933.53;;;2.72;0.00
76496;BME280;65329;52.544;4.662;2022-12-18T04:48:56;66850.25;;;2.72;0.00
76496;BME280;65329;52.544;4.662;2022-12-18T04:51:23;66904.19;;;2.72;0.00
76496;BME280;65329;52.544;4.662;2022-12-18T04:53:52;66917.53;;;2.72;0.00
76496;BME280;65329;52.544;4.662;2022-12-18T04:56:19;66855.78;;;2.67;0.00
76496;BME280;65329;52.544;4.662;2022-12-18T04:58:46;66881.91;;;2.67;0.00
76496;BME280;65329;52.544;4.662;2022-12-18T05:01:15;66913.34;;;2.66;0.00
76496;BME280;65329;52.544;4.662;2022-12-18T05:03:42;66851.22;;;2.63;0.00
76496;BME280;65329;52.544;4.662;2022-12-18T05:06:10;66898.09;;;2.62;0.00
76496;BME280;65329;52.544;4.662;2022-12-18T05:08:37;66844.38;;;2.57;0.00
76496;BME280;65329;52.544;4.662;2022-12-18T05:11:09;66827.22;;;2.56;0.00
76496;BME280;65329;52.544;4.662;2022-12-18T05:13:36;66833.34;;;2.52;0.00
76496;BME280;65329;52.544;4.662;2022-12-18T05:16:05;66867.63;;;2.54;0.00
76496;BME280;65329;52.544;4.662;2022-12-18T05:18:33;66878.69;;;2.52;0.00
76496;BME280;65329;52.544;4.662;2022-12-18T05:21:00;66826.88;;;2.51;0.00
76496;BME280;65329;52.544;4.662;2022-12-18T05:23:27;66859.06;;;2.47;0.00
76496;BME280;65329;52.544;4.662;2022-12-18T05:26:02;66845.16;;;2.46;0.00
76496;BME280;65329;52.544;4.662;2022-12-18T05:28:31;66839.06;;;2.43;0.00
76496;BME280;65329;52.544;4.662;2022-12-18T05:31:00;66823.06;;;2.43;0.00
76496;BME280;65329;52.544;4.662;2022-12-18T05:33:30;66869.94;;;2.42;0.00
76496;BME280;65329;52.544;4.662;2022-12-18T05:36:01;66865.53;;;2.41;0.00
76496;BME280;65329;52.544;4.662;2022-12-18T05:38:30;66862.31;;;2.40;0.00
76496;BME280;65329;52.544;4.662;2022-12-18T05:40:57;66851.81;;;2.36;0.00
76496;BME280;65329;52.544;4.662;2022-12-18T05:43:25;66857.75;;;2.36;0.00
76496;BME280;65329;52.544;4.662;2022-12-18T05:45:52;66905.53;;;2.34;0.00
76496;BME280;65329;52.544;4.662;2022-12-18T05:48:20;66871.06;;;2.29;0.00
76496;BME280;65329;52.544;4.662;2022-12-18T05:50:48;66837.16;;;2.32;0.00
76496;BME280;65329;52.544;4.662;2022-12-18T05:53:18;66830.50;;;2.29;0.00
76496;BME280;65329;52.544;4.662;2022-12-18T05:55:46;66833.38;;;2.24;0.00
76496;BME280;65329;52.544;4.662;2022-12-18T05:58:13;66854.69;;;2.24;0.00
76496;BME280;65329;52.544;4.662;2022-12-18T06:00:43;66821.19;;;2.25;0.00
76496;BME280;65329;52.544;4.662;2022-12-18T06:03:12;66826.88;;;2.23;0.00
76496;BME280;65329;52.544;4.662;2022-12-18T06:05:41;66833.00;;;2.19;0.00
76496;BME280;65329;52.544;4.662;2022-12-18T06:08:09;66810.53;;;2.18;0.00
76496;BME280;65329;52.544;4.662;2022-12-18T06:10:36;66811.09;;;2.19;0.00
76496;BME280;65329;52.544;4.662;2022-12-18T06:13:03;66804.03;;;2.17;0.00
76496;BME280;65329;52.544;4.662;2022-12-18T06:15:30;66796.03;;;2.17;0.00
76496;BME280;65329;52.544;4.662;2022-12-18T06:17:57;66879.44;;;2.13;0.00
76496;BME280;65329;52.544;4.662;2022-12-18T06:20:24;66843.25;;;2.14;0.00
76496;BME280;65329;52.544;4.662;2022-12-18T06:22:58;66795.47;;;2.10;0.00
76496;BME280;65329;52.544;4.662;2022-12-18T06:25:25;66826.91;;;2.09;0.00
76496;BME280;65329;52.544;4.662;2022-12-18T06:27:51;66845.34;;;2.07;0.00
76496;BME280;65329;52.544;4.662;2022-12-18T06:30:18;66792.63;;;2.07;0.00
76496;BME280;65329;52.544;4.662;2022-12-18T06:32:45;66795.69;;;2.05;0.00
76496;BME280;65329;52.544;4.662;2022-12-18T06:35:18;66752.47;;;2.05;0.00
76496;BME280;65329;52.544;4.662;2022-12-18T06:37:46;66764.09;;;2.03;0.00
76496;BME280;65329;52.544;4.662;2022-12-18T06:40:13;66798.72;;;2.03;0.00
76496;BME280;65329;52.544;4.662;2022-12-18T06:42:39;66855.66;;;2.02;0.00
76496;BME280;65329;52.544;4.662;2022-12-18T06:45:07;66789.97;;;2.00;0.00
76496;BME280;65329;52.544;4.662;2022-12-18T06:47:34;66801.97;;;1.96;0.00
76496;BME280;65329;52.544;4.662;2022-12-18T06:50:00;66762.56;;;1.97;0.00
76496;BME280;65329;52.544;4.662;2022-12-18T06:52:27;66796.09;;;1.96;0.00
76496;BME280;65329;52.544;4.662;2022-12-18T06:54:54;66826.53;;;1.97;0.00
76496;BME280;65329;52.544;4.662;2022-12-18T06:57:20;66810.91;;;1.95;0.00
76496;BME280;65329;52.544;4.662;2022-12-18T06:59:47;66812.44;;;1.94;0.00
76496;BME280;65329;52.544;4.662;2022-12-18T07:02:14;66809.19;;;1.93;0.00
76496;BME280;65329;52.544;4.662;2022-12-18T07:04:41;66783.50;;;1.92;0.00
76496;BME280;65329;52.544;4.662;2022-12-18T07:07:08;66802.16;;;1.92;0.00
76496;BME280;65329;52.544;4.662;2022-12-18T07:09:34;66772.09;;;1.89;0.00
76496;BME280;65329;52.544;4.662;2022-12-18T07:12:01;66780.84;;;1.92;0.00
76496;BME280;65329;52.544;4.662;2022-12-18T07:14:28;66817.38;;;1.89;0.00
76496;BME280;65329;52.544;4.662;2022-12-18T07:16:55;66796.84;;;1.85;0.00
76496;BME280;65329;52.544;4.662;2022-12-18T07:19:25;66882.88;;;1.88;0.00
76496;BME280;65329;52.544;4.662;2022-12-18T07:21:52;66987.72;;;1.86;0.00
76496;BME280;65329;52.544;4.662;2022-12-18T07:24:18;67177.25;;;1.84;0.00
76496;BME280;65329;52.544;4.662;2022-12-18T07:26:46;67296.22;;;1.86;0.00
76496;BME280;65329;52.544;4.662;2022-12-18T07:29:13;67493.41;;;1.86;0.00
76496;BME280;65329;52.544;4.662;2022-12-18T07:31:39;67613.09;;;1.83;0.00
76496;BME280;65329;52.544;4.662;2022-12-18T07:34:11;67711.13;;;1.83;0.00
76496;BME280;65329;52.544;4.662;2022-12-18T07:36:38;67665.81;;;1.83;0.00
76496;BME280;65329;52.544;4.662;2022-12-18T07:39:05;67594.25;;;1.81;0.00
76496;BME280;65329;52.544;4.662;2022-12-18T07:41:32;67710.91;;;1.80;0.00
76496;BME280;65329;52.544;4.662;2022-12-18T07:44:09;67927.66;;;1.79;0.00
76496;BME280;65329;52.544;4.662;2022-12-18T07:46:37;67865.44;;;1.80;0.00
76496;BME280;65329;52.544;4.662;2022-12-18T07:49:04;67939.47;;;1.80;0.00
76496;BME280;65329;52.544;4.662;2022-12-18T07:51:30;68211.28;;;1.80;0.00
76496;BME280;65329;52.544;4.662;2022-12-18T07:53:57;68550.34;;;1.80;0.00
76496;BME280;65329;52.544;4.662;2022-12-18T07:56:24;68712.34;;;1.80;0.00
76496;BME280;65329;52.544;4.662;2022-12-18T07:58:54;68590.59;;;1.83;0.00
76496;BME280;65329;52.544;4.662;2022-12-18T08:01:21;68459.97;;;1.83;0.00
76496;BME280;65329;52.544;4.662;2022-12-18T08:03:48;68792.25;;;1.84;0.00
76496;BME280;65329;52.544;4.662;2022-12-18T08:06:17;69165.16;;;1.86;0.00
76496;BME280;65329;52.544;4.662;2022-12-18T08:08:44;69211.34;;;1.85;0.00
76496;BME280;65329;52.544;4.662;2022-12-18T08:11:11;69337.53;;;1.88;0.00
76496;BME280;65329;52.544;4.662;2022-12-18T08:13:37;69294.59;;;1.90;0.00
76496;BME280;65329;52.544;4.662;2022-12-18T08:16:06;69315.03;;;1.91;0.00
76496;BME280;65329;52.544;4.662;2022-12-18T08:18:35;69314.13;;;1.93;0.00
76496;BME280;65329;52.544;4.662;2022-12-18T08:21:23;69326.88;;;1.92;0.00
76496;BME280;65329;52.544;4.662;2022-12-18T08:23:51;69367.47;;;1.93;0.00
76496;BME280;65329;52.544;4.662;2022-12-18T08:26:19;69440.34;;;1.96;0.00
76496;BME280;65329;52.544;4.662;2022-12-18T08:28:46;69561.50;;;1.97;0.00
76496;BME280;65329;52.544;4.662;2022-12-18T08:31:14;69567.47;;;2.02;0.00
76496;BME280;65329;52.544;4.662;2022-12-18T08:33:41;69444.19;;;2.06;0.00
76496;BME280;65329;52.544;4.662;2022-12-18T08:36:10;69100.44;;;2.09;0.00
76496;BME280;65329;52.544;4.662;2022-12-18T08:38:37;68705.41;;;2.15;0.00
76496;BME280;65329;52.544;4.662;2022-12-18T08:41:10;68421.75;;;2.21;0.00
76496;BME280;65329;52.544;4.662;2022-12-18T08:43:37;67771.19;;;2.28;0.00
76496;BME280;65329;52.544;4.662;2022-12-18T08:46:24;67693.22;;;2.39;0.00
76496;BME280;65329;52.544;4.662;2022-12-18T08:48:52;66798.09;;;2.45;0.00
76496;BME280;65329;52.544;4.662;2022-12-18T08:51:20;66126.81;;;2.64;0.00
76496;BME280;65329;52.544;4.662;2022-12-18T08:53:47;64810.47;;;2.89;0.00
76496;BME280;65329;52.544;4.662;2022-12-18T08:56:14;65056.53;;;3.04;0.00
76496;BME280;65329;52.544;4.662;2022-12-18T08:58:42;67665.19;;;3.03;0.00
76496;BME280;65329;52.544;4.662;2022-12-18T09:01:11;68551.84;;;2.94;0.00
76496;BME280;65329;52.544;4.662;2022-12-18T09:03:39;68635.38;;;2.85;0.00
76496;BME280;65329;52.544;4.662;2022-12-18T09:06:07;68701.56;;;2.80;0.00
76496;BME280;65329;52.544;4.662;2022-12-18T09:08:35;68618.56;;;2.78;0.00
76496;BME280;65329;52.544;4.662;2022-12-18T09:11:03;68581.78;;;2.78;0.00
76496;BME280;65329;52.544;4.662;2022-12-18T09:13:30;68759.47;;;2.77;0.00
76496;BME280;65329;52.544;4.662;2022-12-18T09:15:58;68805.19;;;2.75;0.00
76496;BME280;65329;52.544;4.662;2022-12-18T09:18:24;68879.59;;;2.77;0.00
76496;BME280;65329;52.544;4.662;2022-12-18T09:20:52;68892.03;;;2.79;0.00
76496;BME280;65329;52.544;4.662;2022-12-18T09:23:21;68826.78;;;2.78;0.00
76496;BME280;65329;52.544;4.662;2022-12-18T09:25:48;68724.13;;;2.81;0.00
76496;BME280;65329;52.544;4.662;2022-12-18T09:28:17;68662.97;;;2.84;0.00
76496;BME280;65329;52.544;4.662;2022-12-18T09:30:49;68593.81;;;2.86;0.00
76496;BME280;65329;52.544;4.662;2022-12-18T09:33:17;68621.34;;;2.89;0.00
76496;BME280;65329;52.544;4.662;2022-12-18T09:35:45;68795.75;;;2.92;0.00
76496;BME280;65329;52.544;4.662;2022-12-18T09:38:15;68916.25;;;2.90;0.00
76496;BME280;65329;52.544;4.662;2022-12-18T09:40:53;69058.63;;;2.93;0.00
76496;BME280;65329;52.544;4.662;2022-12-18T09:43:33;69126.56;;;2.94;0.00
76496;BME280;65329;52.544;4.662;2022-12-18T09:46:05;69196.00;;;2.94;0.00
76496;BME280;65329;52.544;4.662;2022-12-18T09:48:40;69331.28;;;3.00;0.00
76496;BME280;65329;52.544;4.662;2022-12-18T09:51:16;69341.09;;;2.97;0.00
76496;BME280;65329;52.544;4.662;2022-12-18T09:53:49;69404.00;;;3.01;0.00
76496;BME280;65329;52.544;4.662;2022-12-18T09:56:19;69456.81;;;3.05;0.00
76496;BME280;65329;52.544;4.662;2022-12-18T10:01:23;69490.66;;;3.06;0.00
76496;BME280;65329;52.544;4.662;2022-12-18T10:03:52;69502.81;;;3.05;0.00
76496;BME280;65329;52.544;4.662;2022-12-18T10:09:07;69515.56;;;3.09;0.00
76496;BME280;65329;52.544;4.662;2022-12-18T10:14:58;69514.97;;;3.13;0.00
76496;BME280;65329;52.544;4.662;2022-12-18T10:17:45;69581.47;;;3.15;0.00
76496;BME280;65329;52.544;4.662;2022-12-18T10:20:41;69536.34;;;3.18;0.00
76496;BME280;65329;52.544;4.662;2022-12-18T10:28:12;69385.78;;;3.28;0.00
76496;BME280;65329;52.544;4.662;2022-12-18T10:30:41;69378.34;;;3.33;0.00
76496;BME280;65329;52.544;4.662;2022-12-18T10:33:20;69358.44;;;3.32;0.00
76496;BME280;65329;52.544;4.662;2022-12-18T10:35:52;69324.31;;;3.33;0.00
76496;BME280;65329;52.544;4.662;2022-12-18T10:38:29;69302.31;;;3.32;0.00
76496;BME280;65329;52.544;4.662;2022-12-18T10:43:37;69411.59;;;3.34;0.00
76496;BME280;65329;52.544;4.662;2022-12-18T10:51:08;69596.88;;;3.42;0.00
76496;BME280;65329;52.544;4.662;2022-12-18T10:53:40;69587.97;;;3.43;0.00
76496;BME280;65329;52.544;4.662;2022-12-18T10:56:08;69580.22;;;3.46;0.00
76496;BME280;65329;52.544;4.662;2022-12-18T10:58:37;69532.72;;;3.46;0.00
76496;BME280;65329;52.544;4.662;2022-12-18T11:01:12;69493.50;;;3.49;0.00
76496;BME280;65329;52.544;4.662;2022-12-18T11:03:45;69410.34;;;3.51;0.00
76496;BME280;65329;52.544;4.662;2022-12-18T11:06:18;69413.88;;;3.54;0.00
76496;BME280;65329;52.544;4.662;2022-12-18T11:09:06;69378.50;;;3.58;0.00
76496;BME280;65329;52.544;4.662;2022-12-18T11:11:50;69392.75;;;3.61;0.00
76496;BME280;65329;52.544;4.662;2022-12-18T11:14:33;69314.03;;;3.65;0.00
76496;BME280;65329;52.544;4.662;2022-12-18T11:17:00;69232.91;;;3.66;0.00
76496;BME280;65329;52.544;4.662;2022-12-18T11:19:55;69095.31;;;3.70;0.00
76496;BME280;65329;52.544;4.662;2022-12-18T11:22:26;68991.31;;;3.72;0.00
76496;BME280;65329;52.544;4.662;2022-12-18T11:25:18;68968.09;;;3.75;0.00
76496;BME280;65329;52.544;4.662;2022-12-18T11:28:01;69022.44;;;3.78;0.00
76496;BME280;65329;52.544;4.662;2022-12-18T11:30:34;69138.59;;;3.79;0.00
76496;BME280;65329;52.544;4.662;2022-12-18T11:33:21;69217.03;;;3.82;0.00
76496;BME280;65329;52.544;4.662;2022-12-18T11:35:52;69340.06;;;3.82;0.00
76496;BME280;65329;52.544;4.662;2022-12-18T11:40:55;69602.16;;;3.87;0.00
76496;BME280;65329;52.544;4.662;2022-12-18T11:46:11;69698.44;;;3.82;0.00
76496;BME280;65329;52.544;4.662;2022-12-18T11:48:53;69693.38;;;3.85;0.00
76496;BME280;65329;52.544;4.662;2022-12-18T11:51:44;69712.72;;;3.85;0.00
76496;BME280;65329;52.544;4.662;2022-12-18T11:54:15;69657.72;;;3.86;0.00
76496;BME280;65329;52.544;4.662;2022-12-18T11:59:58;69534.09;;;3.90;0.00
76496;BME280;65329;52.544;4.662;2022-12-18T12:21:52;69073.69;;;4.18;0.00
76496;BME280;65329;52.544;4.662;2022-12-18T12:24:24;69024.63;;;4.19;0.00
76496;BME280;65329;52.544;4.662;2022-12-18T12:29:47;69088.22;;;4.23;0.00
76496;BME280;65329;52.544;4.662;2022-12-18T12:38:13;69403.97;;;4.28;0.00
76496;BME280;65329;52.544;4.662;2022-12-18T12:40:49;69525.00;;;4.24;0.00
76496;BME280;65329;52.544;4.662;2022-12-18T12:46:29;69609.19;;;4.25;0.00
76496;BME280;65329;52.544;4.662;2022-12-18T12:49:02;69583.59;;;4.26;0.00
76496;BME280;65329;52.544;4.662;2022-12-18T12:51:39;69563.94;;;4.32;0.00
76496;BME280;65329;52.544;4.662;2022-12-18T12:54:16;69604.41;;;4.30;0.00
76496;BME280;65329;52.544;4.662;2022-12-18T13:15:31;69735.28;;;4.18;0.00
76496;BME280;65329;52.544;4.662;2022-12-18T13:18:26;69757.28;;;4.19;0.00
76496;BME280;65329;52.544;4.662;2022-12-18T13:23:38;69768.00;;;4.14;0.00
76496;BME280;65329;52.544;4.662;2022-12-18T13:34:21;69713.59;;;4.16;0.00
76496;BME280;65329;52.544;4.662;2022-12-18T13:36:55;69669.88;;;4.17;0.00
76496;BME280;65329;52.544;4.662;2022-12-18T13:39:31;69660.06;;;4.16;0.00
76496;BME280;65329;52.544;4.662;2022-12-18T13:44:39;69644.00;;;4.16;0.00
76496;BME280;65329;52.544;4.662;2022-12-18T13:47:34;69558.34;;;4.20;0.00
76496;BME280;65329;52.544;4.662;2022-12-18T13:50:20;69544.97;;;4.16;0.00
76496;BME280;65329;52.544;4.662;2022-12-18T13:52:50;69625.25;;;4.20;0.00
76496;BME280;65329;52.544;4.662;2022-12-18T13:55:19;69608.91;;;4.18;0.00
76496;BME280;65329;52.544;4.662;2022-12-18T13:57:47;69566.94;;;4.21;0.00
76496;BME280;65329;52.544;4.662;2022-12-18T14:00:26;69504.81;;;4.20;0.00
76496;BME280;65329;52.544;4.662;2022-12-18T14:02:56;69437.59;;;4.22;0.00
76496;BME280;65329;52.544;4.662;2022-12-18T14:05:28;69381.41;;;4.22;0.00
76496;BME280;65329;52.544;4.662;2022-12-18T14:08:01;69321.94;;;4.22;0.00
76496;BME280;65329;52.544;4.662;2022-12-18T14:10:35;69402.22;;;4.22;0.00
76496;BME280;65329;52.544;4.662;2022-12-18T14:13:24;69336.81;;;4.21;0.00
76496;BME280;65329;52.544;4.662;2022-12-18T14:15:55;69253.84;;;4.21;0.00
76496;BME280;65329;52.544;4.662;2022-12-18T14:18:28;69143.22;;;4.22;0.00
76496;BME280;65329;52.544;4.662;2022-12-18T14:20:59;69081.09;;;4.22;0.00
76496;BME280;65329;52.544;4.662;2022-12-18T14:23:39;68990.09;;;4.22;0.00
76496;BME280;65329;52.544;4.662;2022-12-18T14:28:51;68714.81;;;4.20;0.00
76496;BME280;65329;52.544;4.662;2022-12-18T14:31:22;68557.28;;;4.18;0.00
76496;BME280;65329;52.544;4.662;2022-12-18T14:33:50;68499.84;;;4.21;0.00
76496;BME280;65329;52.544;4.662;2022-12-18T14:36:19;68458.28;;;4.18;0.00
76496;BME280;65329;52.544;4.662;2022-12-18T14:38:55;68405.03;;;4.20;0.00
76496;BME280;65329;52.544;4.662;2022-12-18T14:41:23;68288.25;;;4.19;0.00
76496;BME280;65329;52.544;4.662;2022-12-18T14:43:52;68087.94;;;4.17;0.00
76496;BME280;65329;52.544;4.662;2022-12-18T14:46:35;67984.75;;;4.18;0.00
76496;BME280;65329;52.544;4.662;2022-12-18T14:49:03;67867.44;;;4.16;0.00
76496;BME280;65329;52.544;4.662;2022-12-18T14:51:33;67779.16;;;4.16;0.00
76496;BME280;65329;52.544;4.662;2022-12-18T14:54:04;67687.06;;;4.15;0.00
76496;BME280;65329;52.544;4.662;2022-12-18T14:56:36;67671.00;;;4.15;0.00
76496;BME280;65329;52.544;4.662;2022-12-18T14:59:19;67625.16;;;4.17;0.00
76496;BME280;65329;52.544;4.662;2022-12-18T15:04:26;67426.09;;;4.16;0.00
76496;BME280;65329;52.544;4.662;2022-12-18T15:07:23;67396.28;;;4.18;0.00
76496;BME280;65329;52.544;4.662;2022-12-18T15:10:12;67382.34;;;4.17;0.00
76496;BME280;65329;52.544;4.662;2022-12-18T15:12:49;67313.00;;;4.13;0.00
76496;BME280;65329;52.544;4.662;2022-12-18T15:18:30;67175.44;;;4.12;0.00
76496;BME280;65329;52.544;4.662;2022-12-18T15:21:07;67144.69;;;4.08;0.00
76496;BME280;65329;52.544;4.662;2022-12-18T15:26:12;67091.03;;;4.13;0.00
76496;BME280;65329;52.544;4.662;2022-12-18T15:28:46;67107.06;;;4.13;0.00
76496;BME280;65329;52.544;4.662;2022-12-18T15:33:49;67079.72;;;4.19;0.00
76496;BME280;65329;52.544;4.662;2022-12-18T15:36:30;67065.22;;;4.18;0.00
76496;BME280;65329;52.544;4.662;2022-12-18T15:38:57;67099.59;;;4.20;0.00
76496;BME280;65329;52.544;4.662;2022-12-18T15:41:33;67108.59;;;4.19;0.00
76496;BME280;65329;52.544;4.662;2022-12-18T15:44:03;67080.88;;;4.20;0.00
76496;BME280;65329;52.544;4.662;2022-12-18T15:46:30;67062.91;;;4.23;0.00
76496;BME280;65329;52.544;4.662;2022-12-18T15:48:58;67097.88;;;4.26;0.00
76496;BME280;65329;52.544;4.662;2022-12-18T15:51:32;67032.53;;;4.25;0.00
76496;BME280;65329;52.544;4.662;2022-12-18T15:54:03;67021.63;;;4.22;0.00
76496;BME280;65329;52.544;4.662;2022-12-18T15:56:30;67049.91;;;4.21;0.00
76496;BME280;65329;52.544;4.662;2022-12-18T15:59:19;67016.28;;;4.22;0.00
76496;BME280;65329;52.544;4.662;2022-12-18T16:01:47;67095.97;;;4.22;0.00